sensor_id;sensor_type;location;lat;lon;timestamp;temperature;humidity
67364;HTU21D;54250;45.572;38.086;2023-07-29T00:01:19;17.64;94.29
67364;HTU21D;54250;45.572;38.086;2023-07-29T00:03:44;17.59;94.43
67364;HTU21D;54250;45.572;38.086;2023-07-29T00:06:10;17.53;94.51
67364;HTU21D;54250;45.572;38.086;2023-07-29T00:08:36;17.52;94.55
67364;HTU21D;54250;45.572;38.086;2023-07-29T00:11:02;17.54;94.46
67364;HTU21D;54250;45.572;38.086;2023-07-29T00:13:28;17.53;94.43
67364;HTU21D;54250;45.572;38.086;2023-07-29T00:15:55;17.50;94.46
67364;HTU21D;54250;45.572;38.086;2023-07-29T00:18:24;17.43;94.62
67364;HTU21D;54250;45.572;38.086;2023-07-29T00:20:49;17.41;94.74
67364;HTU21D;54250;45.572;38.086;2023-07-29T00:23:17;17.36;94.79
67364;HTU21D;54250;45.572;38.086;2023-07-29T00:25:45;17.32;94.98
67364;HTU21D;54250;45.572;38.086;2023-07-29T00:28:12;17.33;95.00
67364;HTU21D;54250;45.572;38.086;2023-07-29T00:30:38;17.32;94.98
67364;HTU21D;54250;45.572;38.086;2023-07-29T00:33:04;17.31;94.97
67364;HTU21D;54250;45.572;38.086;2023-07-29T00:35:30;17.25;95.12
67364;HTU21D;54250;45.572;38.086;2023-07-29T00:37:59;17.25;95.17
67364;HTU21D;54250;45.572;38.086;2023-07-29T00:40:28;17.21;95.26
67364;HTU21D;54250;45.572;38.086;2023-07-29T00:42:57;17.26;95.20
67364;HTU21D;54250;45.572;38.086;2023-07-29T00:45:25;17.25;95.04
67364;HTU21D;54250;45.572;38.086;2023-07-29T00:47:51;17.24;94.99
67364;HTU21D;54250;45.572;38.086;2023-07-29T00:50:17;17.22;94.99
67364;HTU21D;54250;45.572;38.086;2023-07-29T00:52:44;17.22;95.05
67364;HTU21D;54250;45.572;38.086;2023-07-29T00:55:10;17.19;95.09
67364;HTU21D;54250;45.572;38.086;2023-07-29T00:57:36;17.17;95.14
67364;HTU21D;54250;45.572;38.086;2023-07-29T01:00:04;17.18;95.14
67364;HTU21D;54250;45.572;38.086;2023-07-29T01:02:30;17.19;95.12
67364;HTU21D;54250;45.572;38.086;2023-07-29T01:04:58;17.20;95.05
67364;HTU21D;54250;45.572;38.086;2023-07-29T01:10:24;17.28;94.86
67364;HTU21D;54250;45.572;38.086;2023-07-29T01:15:36;17.32;94.70
67364;HTU21D;54250;45.572;38.086;2023-07-29T01:18:23;17.26;94.73
67364;HTU21D;54250;45.572;38.086;2023-07-29T01:20:58;17.29;94.84
67364;HTU21D;54250;45.572;38.086;2023-07-29T01:23:33;17.30;94.75
67364;HTU21D;54250;45.572;38.086;2023-07-29T01:26:00;17.36;94.78
67364;HTU21D;54250;45.572;38.086;2023-07-29T01:28:26;17.49;94.62
67364;HTU21D;54250;45.572;38.086;2023-07-29T01:31:07;17.61;94.37
67364;HTU21D;54250;45.572;38.086;2023-07-29T01:33:40;17.73;94.22
67364;HTU21D;54250;45.572;38.086;2023-07-29T01:36:18;17.80;94.27
67364;HTU21D;54250;45.572;38.086;2023-07-29T01:38:47;17.88;94.07
67364;HTU21D;54250;45.572;38.086;2023-07-29T01:41:14;17.97;93.87
67364;HTU21D;54250;45.572;38.086;2023-07-29T01:43:41;18.05;93.77
67364;HTU21D;54250;45.572;38.086;2023-07-29T01:46:10;18.10;93.69
67364;HTU21D;54250;45.572;38.086;2023-07-29T01:48:38;18.17;93.71
67364;HTU21D;54250;45.572;38.086;2023-07-29T01:51:05;18.26;93.66
67364;HTU21D;54250;45.572;38.086;2023-07-29T01:53:31;18.36;93.42
67364;HTU21D;54250;45.572;38.086;2023-07-29T01:55:57;18.46;93.23
67364;HTU21D;54250;45.572;38.086;2023-07-29T01:58:23;18.50;93.21
67364;HTU21D;54250;45.572;38.086;2023-07-29T02:00:49;18.56;93.12
67364;HTU21D;54250;45.572;38.086;2023-07-29T02:03:16;18.63;92.98
67364;HTU21D;54250;45.572;38.086;2023-07-29T02:05:42;18.67;92.87
67364;HTU21D;54250;45.572;38.086;2023-07-29T02:08:10;18.73;92.79
67364;HTU21D;54250;45.572;38.086;2023-07-29T02:10:37;18.81;92.65
67364;HTU21D;54250;45.572;38.086;2023-07-29T02:13:03;18.85;92.43
67364;HTU21D;54250;45.572;38.086;2023-07-29T02:15:29;18.93;92.38
67364;HTU21D;54250;45.572;38.086;2023-07-29T02:17:55;18.97;92.47
67364;HTU21D;54250;45.572;38.086;2023-07-29T02:20:21;19.01;92.56
67364;HTU21D;54250;45.572;38.086;2023-07-29T02:22:49;19.11;92.58
67364;HTU21D;54250;45.572;38.086;2023-07-29T02:25:15;19.20;92.63
67364;HTU21D;54250;45.572;38.086;2023-07-29T02:27:41;19.27;92.68
67364;HTU21D;54250;45.572;38.086;2023-07-29T02:30:07;19.31;92.79
67364;HTU21D;54250;45.572;38.086;2023-07-29T02:32:35;19.33;92.86
67364;HTU21D;54250;45.572;38.086;2023-07-29T02:35:01;19.33;92.98
67364;HTU21D;54250;45.572;38.086;2023-07-29T02:37:27;19.30;93.21
67364;HTU21D;54250;45.572;38.086;2023-07-29T02:39:53;19.35;93.33
67364;HTU21D;54250;45.572;38.086;2023-07-29T02:42:19;19.45;93.12
67364;HTU21D;54250;45.572;38.086;2023-07-29T02:44:45;19.55;92.93
67364;HTU21D;54250;45.572;38.086;2023-07-29T02:47:11;19.58;92.92
67364;HTU21D;54250;45.572;38.086;2023-07-29T02:49:37;19.60;92.88
67364;HTU21D;54250;45.572;38.086;2023-07-29T02:52:03;19.65;92.79
67364;HTU21D;54250;45.572;38.086;2023-07-29T02:54:29;19.73;92.54
67364;HTU21D;54250;45.572;38.086;2023-07-29T02:56:55;19.88;92.35
67364;HTU21D;54250;45.572;38.086;2023-07-29T02:59:22;20.43;91.19
67364;HTU21D;54250;45.572;38.086;2023-07-29T03:01:48;21.19;88.99
67364;HTU21D;54250;45.572;38.086;2023-07-29T03:04:14;22.17;86.36
67364;HTU21D;54250;45.572;38.086;2023-07-29T03:06:40;23.05;84.07
67364;HTU21D;54250;45.572;38.086;2023-07-29T03:09:06;23.54;83.50
67364;HTU21D;54250;45.572;38.086;2023-07-29T03:11:32;24.09;82.60
67364;HTU21D;54250;45.572;38.086;2023-07-29T03:13:58;24.84;80.72
67364;HTU21D;54250;45.572;38.086;2023-07-29T03:16:24;25.67;78.53
67364;HTU21D;54250;45.572;38.086;2023-07-29T03:18:53;26.26;76.99
67364;HTU21D;54250;45.572;38.086;2023-07-29T03:21:19;26.25;77.47
67364;HTU21D;54250;45.572;38.086;2023-07-29T03:23:45;26.55;76.88
67364;HTU21D;54250;45.572;38.086;2023-07-29T03:26:11;27.25;75.22
67364;HTU21D;54250;45.572;38.086;2023-07-29T03:28:42;28.10;72.67
67364;HTU21D;54250;45.572;38.086;2023-07-29T03:31:09;28.65;70.99
67364;HTU21D;54250;45.572;38.086;2023-07-29T03:33:35;29.34;69.19
67364;HTU21D;54250;45.572;38.086;2023-07-29T03:36:01;30.01;67.18
67364;HTU21D;54250;45.572;38.086;2023-07-29T03:38:27;30.62;65.51
67364;HTU21D;54250;45.572;38.086;2023-07-29T03:40:53;31.31;63.92
67364;HTU21D;54250;45.572;38.086;2023-07-29T03:43:19;32.01;61.54
67364;HTU21D;54250;45.572;38.086;2023-07-29T03:45:46;32.63;60.09
67364;HTU21D;54250;45.572;38.086;2023-07-29T03:48:12;33.22;58.05
67364;HTU21D;54250;45.572;38.086;2023-07-29T03:50:38;33.55;57.20
67364;HTU21D;54250;45.572;38.086;2023-07-29T03:53:05;34.11;55.84
67364;HTU21D;54250;45.572;38.086;2023-07-29T03:55:32;34.80;54.15
67364;HTU21D;54250;45.572;38.086;2023-07-29T03:57:59;35.24;52.80
67364;HTU21D;54250;45.572;38.086;2023-07-29T04:00:25;35.60;52.14
67364;HTU21D;54250;45.572;38.086;2023-07-29T04:02:52;36.02;51.17
67364;HTU21D;54250;45.572;38.086;2023-07-29T04:05:18;36.24;50.66
67364;HTU21D;54250;45.572;38.086;2023-07-29T04:07:45;36.38;49.98
67364;HTU21D;54250;45.572;38.086;2023-07-29T04:10:11;36.67;49.41
67364;HTU21D;54250;45.572;38.086;2023-07-29T04:12:38;36.86;49.27
67364;HTU21D;54250;45.572;38.086;2023-07-29T04:15:04;37.45;47.67
67364;HTU21D;54250;45.572;38.086;2023-07-29T04:17:32;37.67;47.06
67364;HTU21D;54250;45.572;38.086;2023-07-29T04:19:58;38.20;46.12
67364;HTU21D;54250;45.572;38.086;2023-07-29T04:22:29;38.70;45.05
67364;HTU21D;54250;45.572;38.086;2023-07-29T04:24:55;38.82;44.60
67364;HTU21D;54250;45.572;38.086;2023-07-29T04:27:21;38.61;44.74
67364;HTU21D;54250;45.572;38.086;2023-07-29T04:29:47;38.29;44.93
67364;HTU21D;54250;45.572;38.086;2023-07-29T04:32:13;37.67;45.54
67364;HTU21D;54250;45.572;38.086;2023-07-29T04:34:41;36.67;46.98
67364;HTU21D;54250;45.572;38.086;2023-07-29T04:37:07;37.43;45.54
67364;HTU21D;54250;45.572;38.086;2023-07-29T04:39:33;38.04;44.10
67364;HTU21D;54250;45.572;38.086;2023-07-29T04:41:59;38.18;43.57
67364;HTU21D;54250;45.572;38.086;2023-07-29T04:44:27;38.61;43.22
67364;HTU21D;54250;45.572;38.086;2023-07-29T04:46:53;39.29;41.87
67364;HTU21D;54250;45.572;38.086;2023-07-29T04:49:20;39.69;41.19
67364;HTU21D;54250;45.572;38.086;2023-07-29T04:51:46;39.86;40.37
67364;HTU21D;54250;45.572;38.086;2023-07-29T04:54:12;39.73;40.37
67364;HTU21D;54250;45.572;38.086;2023-07-29T04:56:37;39.77;40.70
67364;HTU21D;54250;45.572;38.086;2023-07-29T04:59:03;40.57;39.01
67364;HTU21D;54250;45.572;38.086;2023-07-29T05:01:30;40.96;38.01
67364;HTU21D;54250;45.572;38.086;2023-07-29T05:03:56;41.35;37.19
67364;HTU21D;54250;45.572;38.086;2023-07-29T05:06:22;41.77;36.36
67364;HTU21D;54250;45.572;38.086;2023-07-29T05:08:48;42.46;35.11
67364;HTU21D;54250;45.572;38.086;2023-07-29T05:11:14;43.20;33.89
67364;HTU21D;54250;45.572;38.086;2023-07-29T05:13:40;44.01;33.09
67364;HTU21D;54250;45.572;38.086;2023-07-29T05:16:08;44.51;33.09
67364;HTU21D;54250;45.572;38.086;2023-07-29T05:18:34;45.30;31.38
67364;HTU21D;54250;45.572;38.086;2023-07-29T05:21:00;45.92;30.48
67364;HTU21D;54250;45.572;38.086;2023-07-29T05:23:26;46.42;30.03
67364;HTU21D;54250;45.572;38.086;2023-07-29T05:25:52;46.66;29.57
67364;HTU21D;54250;45.572;38.086;2023-07-29T05:28:18;47.09;28.69
67364;HTU21D;54250;45.572;38.086;2023-07-29T05:30:44;47.16;27.79
67364;HTU21D;54250;45.572;38.086;2023-07-29T05:33:10;47.24;26.86
67364;HTU21D;54250;45.572;38.086;2023-07-29T05:35:38;47.46;26.73
67364;HTU21D;54250;45.572;38.086;2023-07-29T05:38:05;47.77;26.55
67364;HTU21D;54250;45.572;38.086;2023-07-29T05:40:33;48.10;26.51
67364;HTU21D;54250;45.572;38.086;2023-07-29T05:42:59;48.44;25.67
67364;HTU21D;54250;45.572;38.086;2023-07-29T05:45:25;48.49;24.97
67364;HTU21D;54250;45.572;38.086;2023-07-29T05:47:51;48.39;24.85
67364;HTU21D;54250;45.572;38.086;2023-07-29T05:50:18;48.42;24.34
67364;HTU21D;54250;45.572;38.086;2023-07-29T05:52:44;48.55;24.53
67364;HTU21D;54250;45.572;38.086;2023-07-29T05:55:10;48.74;24.04
67364;HTU21D;54250;45.572;38.086;2023-07-29T05:57:36;48.76;23.60
67364;HTU21D;54250;45.572;38.086;2023-07-29T06:00:02;48.97;23.77
67364;HTU21D;54250;45.572;38.086;2023-07-29T06:02:38;48.71;22.98
67364;HTU21D;54250;45.572;38.086;2023-07-29T06:05:08;48.57;22.90
67364;HTU21D;54250;45.572;38.086;2023-07-29T06:07:34;48.60;22.87
67364;HTU21D;54250;45.572;38.086;2023-07-29T06:10:00;48.58;22.63
67364;HTU21D;54250;45.572;38.086;2023-07-29T06:12:26;48.66;22.24
67364;HTU21D;54250;45.572;38.086;2023-07-29T06:14:52;48.53;22.44
67364;HTU21D;54250;45.572;38.086;2023-07-29T06:17:18;48.74;22.34
67364;HTU21D;54250;45.572;38.086;2023-07-29T06:19:44;48.47;22.53
67364;HTU21D;54250;45.572;38.086;2023-07-29T06:22:10;48.29;22.32
67364;HTU21D;54250;45.572;38.086;2023-07-29T06:24:36;48.46;22.16
67364;HTU21D;54250;45.572;38.086;2023-07-29T06:27:02;48.87;21.82
67364;HTU21D;54250;45.572;38.086;2023-07-29T06:29:28;48.77;21.87
67364;HTU21D;54250;45.572;38.086;2023-07-29T06:31:54;48.71;22.04
67364;HTU21D;54250;45.572;38.086;2023-07-29T06:34:20;48.81;21.73
67364;HTU21D;54250;45.572;38.086;2023-07-29T06:36:46;48.98;21.57
67364;HTU21D;54250;45.572;38.086;2023-07-29T06:39:12;49.01;21.52
67364;HTU21D;54250;45.572;38.086;2023-07-29T06:41:38;49.05;21.23
67364;HTU21D;54250;45.572;38.086;2023-07-29T06:44:04;49.27;21.11
67364;HTU21D;54250;45.572;38.086;2023-07-29T06:46:30;49.42;21.09
67364;HTU21D;54250;45.572;38.086;2023-07-29T06:48:56;49.38;21.17
67364;HTU21D;54250;45.572;38.086;2023-07-29T06:51:22;47.84;21.72
67364;HTU21D;54250;45.572;38.086;2023-07-29T06:53:48;46.24;23.47
67364;HTU21D;54250;45.572;38.086;2023-07-29T06:56:15;45.36;24.29
67364;HTU21D;54250;45.572;38.086;2023-07-29T06:58:41;46.20;23.72
67364;HTU21D;54250;45.572;38.086;2023-07-29T07:01:07;47.31;22.56
67364;HTU21D;54250;45.572;38.086;2023-07-29T07:03:33;48.13;22.02
67364;HTU21D;54250;45.572;38.086;2023-07-29T07:05:59;48.41;21.50
67364;HTU21D;54250;45.572;38.086;2023-07-29T07:08:25;48.65;21.41
67364;HTU21D;54250;45.572;38.086;2023-07-29T07:10:51;48.87;20.92
67364;HTU21D;54250;45.572;38.086;2023-07-29T07:13:17;48.99;21.18
67364;HTU21D;54250;45.572;38.086;2023-07-29T07:15:43;48.26;21.82
67364;HTU21D;54250;45.572;38.086;2023-07-29T07:18:09;48.88;21.53
67364;HTU21D;54250;45.572;38.086;2023-07-29T07:20:35;49.49;20.72
67364;HTU21D;54250;45.572;38.086;2023-07-29T07:23:01;49.91;20.63
67364;HTU21D;54250;45.572;38.086;2023-07-29T07:25:27;50.37;20.35
67364;HTU21D;54250;45.572;38.086;2023-07-29T07:27:53;50.59;19.79
67364;HTU21D;54250;45.572;38.086;2023-07-29T07:30:19;50.31;19.79
67364;HTU21D;54250;45.572;38.086;2023-07-29T07:32:44;50.30;19.60
67364;HTU21D;54250;45.572;38.086;2023-07-29T07:35:10;50.51;19.61
67364;HTU21D;54250;45.572;38.086;2023-07-29T07:37:37;48.65;21.09
67364;HTU21D;54250;45.572;38.086;2023-07-29T07:40:03;48.15;21.47
67364;HTU21D;54250;45.572;38.086;2023-07-29T07:42:30;48.93;20.18
67364;HTU21D;54250;45.572;38.086;2023-07-29T07:44:56;49.59;19.89
67364;HTU21D;54250;45.572;38.086;2023-07-29T07:47:22;49.06;20.21
67364;HTU21D;54250;45.572;38.086;2023-07-29T07:49:48;46.44;22.43
67364;HTU21D;54250;45.572;38.086;2023-07-29T07:52:16;44.13;24.95
67364;HTU21D;54250;45.572;38.086;2023-07-29T07:54:41;43.59;25.02
67364;HTU21D;54250;45.572;38.086;2023-07-29T07:57:07;41.84;26.70
67364;HTU21D;54250;45.572;38.086;2023-07-29T07:59:33;39.51;29.14
67364;HTU21D;54250;45.572;38.086;2023-07-29T08:01:59;37.54;32.51
67364;HTU21D;54250;45.572;38.086;2023-07-29T08:04:25;36.72;34.31
67364;HTU21D;54250;45.572;38.086;2023-07-29T08:06:51;39.43;31.32
67364;HTU21D;54250;45.572;38.086;2023-07-29T08:09:17;41.96;27.85
67364;HTU21D;54250;45.572;38.086;2023-07-29T08:11:43;43.55;25.97
67364;HTU21D;54250;45.572;38.086;2023-07-29T08:14:09;45.15;24.66
67364;HTU21D;54250;45.572;38.086;2023-07-29T08:16:35;45.55;24.27
67364;HTU21D;54250;45.572;38.086;2023-07-29T08:19:00;46.12;23.60
67364;HTU21D;54250;45.572;38.086;2023-07-29T08:21:27;45.06;24.20
67364;HTU21D;54250;45.572;38.086;2023-07-29T08:23:53;42.30;26.65
67364;HTU21D;54250;45.572;38.086;2023-07-29T08:26:21;40.08;29.29
67364;HTU21D;54250;45.572;38.086;2023-07-29T08:28:49;38.97;31.66
67364;HTU21D;54250;45.572;38.086;2023-07-29T08:31:19;40.10;30.38
67364;HTU21D;54250;45.572;38.086;2023-07-29T08:33:45;41.70;28.81
67364;HTU21D;54250;45.572;38.086;2023-07-29T08:36:11;41.89;28.55
67364;HTU21D;54250;45.572;38.086;2023-07-29T08:38:37;41.19;29.46
67364;HTU21D;54250;45.572;38.086;2023-07-29T08:41:36;39.94;30.61
67364;HTU21D;54250;45.572;38.086;2023-07-29T08:44:11;37.19;33.33
67364;HTU21D;54250;45.572;38.086;2023-07-29T08:46:39;35.77;35.95
67364;HTU21D;54250;45.572;38.086;2023-07-29T08:49:06;37.14;33.26
67364;HTU21D;54250;45.572;38.086;2023-07-29T08:51:33;37.01;33.63
67364;HTU21D;54250;45.572;38.086;2023-07-29T08:53:59;37.37;33.79
67364;HTU21D;54250;45.572;38.086;2023-07-29T08:56:26;39.49;31.35
67364;HTU21D;54250;45.572;38.086;2023-07-29T08:58:53;40.99;29.83
67364;HTU21D;54250;45.572;38.086;2023-07-29T09:01:20;41.24;29.15
67364;HTU21D;54250;45.572;38.086;2023-07-29T09:03:45;39.79;30.96
67364;HTU21D;54250;45.572;38.086;2023-07-29T09:06:14;40.23;31.44
67364;HTU21D;54250;45.572;38.086;2023-07-29T09:08:40;39.66;31.94
67364;HTU21D;54250;45.572;38.086;2023-07-29T09:11:06;38.73;32.25
67364;HTU21D;54250;45.572;38.086;2023-07-29T09:13:34;37.16;35.01
67364;HTU21D;54250;45.572;38.086;2023-07-29T09:16:00;36.36;36.38
67364;HTU21D;54250;45.572;38.086;2023-07-29T09:18:27;38.09;33.60
67364;HTU21D;54250;45.572;38.086;2023-07-29T09:20:54;38.52;33.17
67364;HTU21D;54250;45.572;38.086;2023-07-29T09:23:20;38.49;32.70
67364;HTU21D;54250;45.572;38.086;2023-07-29T09:25:46;38.99;31.99
67364;HTU21D;54250;45.572;38.086;2023-07-29T09:28:16;39.74;31.12
67364;HTU21D;54250;45.572;38.086;2023-07-29T09:30:44;38.67;32.31
67364;HTU21D;54250;45.572;38.086;2023-07-29T09:33:11;36.76;34.70
67364;HTU21D;54250;45.572;38.086;2023-07-29T09:35:37;35.31;36.86
67364;HTU21D;54250;45.572;38.086;2023-07-29T09:38:07;34.50;38.42
67364;HTU21D;54250;45.572;38.086;2023-07-29T09:40:37;34.21;39.46
67364;HTU21D;54250;45.572;38.086;2023-07-29T09:43:03;33.93;40.97
67364;HTU21D;54250;45.572;38.086;2023-07-29T09:45:29;33.68;40.71
67364;HTU21D;54250;45.572;38.086;2023-07-29T09:47:57;33.53;40.82
67364;HTU21D;54250;45.572;38.086;2023-07-29T09:50:25;33.52;40.77
67364;HTU21D;54250;45.572;38.086;2023-07-29T09:52:52;33.37;40.99
67364;HTU21D;54250;45.572;38.086;2023-07-29T09:55:20;32.75;41.96
67364;HTU21D;54250;45.572;38.086;2023-07-29T09:57:47;32.59;42.71
67364;HTU21D;54250;45.572;38.086;2023-07-29T10:00:13;32.71;42.63
67364;HTU21D;54250;45.572;38.086;2023-07-29T10:02:42;32.32;43.03
67364;HTU21D;54250;45.572;38.086;2023-07-29T10:05:08;32.38;42.87
67364;HTU21D;54250;45.572;38.086;2023-07-29T10:07:39;32.58;41.64
67364;HTU21D;54250;45.572;38.086;2023-07-29T10:10:09;32.49;41.77
67364;HTU21D;54250;45.572;38.086;2023-07-29T10:12:35;32.20;42.04
67364;HTU21D;54250;45.572;38.086;2023-07-29T10:15:05;32.30;42.89
67364;HTU21D;54250;45.572;38.086;2023-07-29T10:17:34;32.68;42.46
67364;HTU21D;54250;45.572;38.086;2023-07-29T10:20:05;32.77;42.29
67364;HTU21D;54250;45.572;38.086;2023-07-29T10:22:36;32.78;42.24
67364;HTU21D;54250;45.572;38.086;2023-07-29T10:25:25;32.69;41.98
67364;HTU21D;54250;45.572;38.086;2023-07-29T10:27:56;32.55;42.11
67364;HTU21D;54250;45.572;38.086;2023-07-29T10:30:24;32.45;42.62
67364;HTU21D;54250;45.572;38.086;2023-07-29T10:32:52;32.57;42.72
67364;HTU21D;54250;45.572;38.086;2023-07-29T10:35:19;32.70;42.81
67364;HTU21D;54250;45.572;38.086;2023-07-29T10:37:45;32.72;42.93
67364;HTU21D;54250;45.572;38.086;2023-07-29T10:40:13;32.68;42.90
67364;HTU21D;54250;45.572;38.086;2023-07-29T10:42:59;32.48;43.10
67364;HTU21D;54250;45.572;38.086;2023-07-29T10:45:26;32.33;43.58
67364;HTU21D;54250;45.572;38.086;2023-07-29T10:47:52;32.19;43.39
67364;HTU21D;54250;45.572;38.086;2023-07-29T10:50:21;31.75;44.16
67364;HTU21D;54250;45.572;38.086;2023-07-29T10:52:52;31.56;44.51
67364;HTU21D;54250;45.572;38.086;2023-07-29T10:55:34;31.50;44.58
67364;HTU21D;54250;45.572;38.086;2023-07-29T10:58:12;31.21;44.18
67364;HTU21D;54250;45.572;38.086;2023-07-29T11:00:41;30.81;44.96
67364;HTU21D;54250;45.572;38.086;2023-07-29T11:03:08;30.83;45.22
67364;HTU21D;54250;45.572;38.086;2023-07-29T11:05:51;30.96;44.60
67364;HTU21D;54250;45.572;38.086;2023-07-29T11:08:18;30.89;45.07
67364;HTU21D;54250;45.572;38.086;2023-07-29T11:10:57;30.84;45.68
67364;HTU21D;54250;45.572;38.086;2023-07-29T11:13:26;30.83;46.26
67364;HTU21D;54250;45.572;38.086;2023-07-29T11:15:54;30.67;46.34
67364;HTU21D;54250;45.572;38.086;2023-07-29T11:18:20;30.37;46.57
67364;HTU21D;54250;45.572;38.086;2023-07-29T11:20:46;30.39;46.60
67364;HTU21D;54250;45.572;38.086;2023-07-29T11:23:13;30.37;46.43
67364;HTU21D;54250;45.572;38.086;2023-07-29T11:25:39;30.33;46.73
67364;HTU21D;54250;45.572;38.086;2023-07-29T11:28:05;30.17;46.69
67364;HTU21D;54250;45.572;38.086;2023-07-29T11:30:31;30.07;46.95
67364;HTU21D;54250;45.572;38.086;2023-07-29T11:32:59;30.10;47.38
67364;HTU21D;54250;45.572;38.086;2023-07-29T11:35:25;30.17;47.58
67364;HTU21D;54250;45.572;38.086;2023-07-29T11:37:53;30.26;47.89
67364;HTU21D;54250;45.572;38.086;2023-07-29T11:40:23;30.12;47.64
67364;HTU21D;54250;45.572;38.086;2023-07-29T11:42:51;29.74;48.04
67364;HTU21D;54250;45.572;38.086;2023-07-29T11:45:18;29.77;47.86
67364;HTU21D;54250;45.572;38.086;2023-07-29T11:47:46;29.79;48.04
67364;HTU21D;54250;45.572;38.086;2023-07-29T11:50:13;29.68;48.11
67364;HTU21D;54250;45.572;38.086;2023-07-29T11:52:44;29.63;49.16
67364;HTU21D;54250;45.572;38.086;2023-07-29T11:55:12;29.68;48.89
67364;HTU21D;54250;45.572;38.086;2023-07-29T11:57:39;29.67;48.97
67364;HTU21D;54250;45.572;38.086;2023-07-29T12:00:08;29.67;48.62
67364;HTU21D;54250;45.572;38.086;2023-07-29T12:02:42;29.62;48.61
67364;HTU21D;54250;45.572;38.086;2023-07-29T12:05:13;29.51;48.70
67364;HTU21D;54250;45.572;38.086;2023-07-29T12:07:42;29.37;49.03
67364;HTU21D;54250;45.572;38.086;2023-07-29T12:10:09;29.21;48.64
67364;HTU21D;54250;45.572;38.086;2023-07-29T12:12:48;29.05;48.94
67364;HTU21D;54250;45.572;38.086;2023-07-29T12:15:27;28.93;49.48
67364;HTU21D;54250;45.572;38.086;2023-07-29T12:17:58;28.86;49.78
67364;HTU21D;54250;45.572;38.086;2023-07-29T12:20:29;28.80;50.10
67364;HTU21D;54250;45.572;38.086;2023-07-29T12:22:56;28.70;49.91
67364;HTU21D;54250;45.572;38.086;2023-07-29T12:25:23;28.61;50.15
67364;HTU21D;54250;45.572;38.086;2023-07-29T12:27:49;28.58;50.92
67364;HTU21D;54250;45.572;38.086;2023-07-29T12:30:15;28.57;50.74
67364;HTU21D;54250;45.572;38.086;2023-07-29T12:32:45;28.52;50.37
67364;HTU21D;54250;45.572;38.086;2023-07-29T12:35:12;28.43;50.60
67364;HTU21D;54250;45.572;38.086;2023-07-29T12:37:41;28.39;50.92
67364;HTU21D;54250;45.572;38.086;2023-07-29T12:40:23;28.34;50.35
67364;HTU21D;54250;45.572;38.086;2023-07-29T12:42:50;28.25;50.29
67364;HTU21D;54250;45.572;38.086;2023-07-29T12:45:20;28.14;50.68
67364;HTU21D;54250;45.572;38.086;2023-07-29T12:47:52;28.06;51.01
67364;HTU21D;54250;45.572;38.086;2023-07-29T12:50:18;28.01;50.59
67364;HTU21D;54250;45.572;38.086;2023-07-29T12:52:44;27.94;50.98
67364;HTU21D;54250;45.572;38.086;2023-07-29T12:55:10;27.85;51.11
67364;HTU21D;54250;45.572;38.086;2023-07-29T12:57:41;27.79;50.94
67364;HTU21D;54250;45.572;38.086;2023-07-29T13:00:08;27.69;50.45
67364;HTU21D;54250;45.572;38.086;2023-07-29T13:02:34;27.69;50.44
67364;HTU21D;54250;45.572;38.086;2023-07-29T13:05:00;27.66;50.62
67364;HTU21D;54250;45.572;38.086;2023-07-29T13:07:26;27.63;50.71
67364;HTU21D;54250;45.572;38.086;2023-07-29T13:09:52;27.60;50.76
67364;HTU21D;54250;45.572;38.086;2023-07-29T13:12:18;27.54;51.08
67364;HTU21D;54250;45.572;38.086;2023-07-29T13:14:44;27.46;51.11
67364;HTU21D;54250;45.572;38.086;2023-07-29T13:17:10;27.40;51.15
67364;HTU21D;54250;45.572;38.086;2023-07-29T13:19:35;27.30;51.48
67364;HTU21D;54250;45.572;38.086;2023-07-29T13:22:01;27.23;51.53
67364;HTU21D;54250;45.572;38.086;2023-07-29T13:24:27;27.16;51.75
67364;HTU21D;54250;45.572;38.086;2023-07-29T13:26:53;27.15;52.19
67364;HTU21D;54250;45.572;38.086;2023-07-29T13:29:19;27.09;52.28
67364;HTU21D;54250;45.572;38.086;2023-07-29T13:31:45;27.01;51.74
67364;HTU21D;54250;45.572;38.086;2023-07-29T13:34:11;26.96;51.47
67364;HTU21D;54250;45.572;38.086;2023-07-29T13:36:37;26.92;51.72
67364;HTU21D;54250;45.572;38.086;2023-07-29T13:39:03;26.85;51.64
67364;HTU21D;54250;45.572;38.086;2023-07-29T13:41:29;26.79;51.61
67364;HTU21D;54250;45.572;38.086;2023-07-29T13:43:55;26.76;51.52
67364;HTU21D;54250;45.572;38.086;2023-07-29T13:46:21;26.72;51.31
67364;HTU21D;54250;45.572;38.086;2023-07-29T13:48:47;26.67;51.53
67364;HTU21D;54250;45.572;38.086;2023-07-29T13:51:13;26.62;51.79
67364;HTU21D;54250;45.572;38.086;2023-07-29T13:53:39;26.55;51.57
67364;HTU21D;54250;45.572;38.086;2023-07-29T13:56:04;26.48;51.56
67364;HTU21D;54250;45.572;38.086;2023-07-29T13:58:30;26.43;51.59
67364;HTU21D;54250;45.572;38.086;2023-07-29T14:00:56;26.40;51.53
67364;HTU21D;54250;45.572;38.086;2023-07-29T14:03:22;26.37;51.70
67364;HTU21D;54250;45.572;38.086;2023-07-29T14:05:48;26.36;51.59
67364;HTU21D;54250;45.572;38.086;2023-07-29T14:08:14;26.30;51.30
67364;HTU21D;54250;45.572;38.086;2023-07-29T14:10:40;26.26;51.79
67364;HTU21D;54250;45.572;38.086;2023-07-29T14:13:06;26.18;52.12
67364;HTU21D;54250;45.572;38.086;2023-07-29T14:15:32;26.07;52.08
67364;HTU21D;54250;45.572;38.086;2023-07-29T14:17:58;26.04;52.24
67364;HTU21D;54250;45.572;38.086;2023-07-29T14:20:24;26.03;52.38
67364;HTU21D;54250;45.572;38.086;2023-07-29T14:22:50;25.99;52.21
67364;HTU21D;54250;45.572;38.086;2023-07-29T14:25:16;25.94;52.59
67364;HTU21D;54250;45.572;38.086;2023-07-29T14:27:42;25.88;53.12
67364;HTU21D;54250;45.572;38.086;2023-07-29T14:30:08;25.78;53.49
67364;HTU21D;54250;45.572;38.086;2023-07-29T14:32:34;25.69;53.56
67364;HTU21D;54250;45.572;38.086;2023-07-29T14:35:00;25.65;53.80
67364;HTU21D;54250;45.572;38.086;2023-07-29T14:37:30;25.61;53.56
67364;HTU21D;54250;45.572;38.086;2023-07-29T14:39:57;25.54;53.55
67364;HTU21D;54250;45.572;38.086;2023-07-29T14:42:23;25.45;54.10
67364;HTU21D;54250;45.572;38.086;2023-07-29T14:44:49;25.37;54.38
67364;HTU21D;54250;45.572;38.086;2023-07-29T14:47:15;25.32;54.38
67364;HTU21D;54250;45.572;38.086;2023-07-29T14:49:41;25.25;54.00
67364;HTU21D;54250;45.572;38.086;2023-07-29T14:52:07;25.22;54.06
67364;HTU21D;54250;45.572;38.086;2023-07-29T14:54:33;25.19;54.40
67364;HTU21D;54250;45.572;38.086;2023-07-29T14:56:59;25.12;54.33
67364;HTU21D;54250;45.572;38.086;2023-07-29T14:59:25;25.09;54.70
67364;HTU21D;54250;45.572;38.086;2023-07-29T15:01:51;25.03;54.81
67364;HTU21D;54250;45.572;38.086;2023-07-29T15:04:17;24.97;55.34
67364;HTU21D;54250;45.572;38.086;2023-07-29T15:06:43;24.92;55.69
67364;HTU21D;54250;45.572;38.086;2023-07-29T15:09:09;24.86;55.79